sensor_id;sensor_type;location;lat;lon;timestamp;temperature;humidity
81202;DHT22;71068;47.662;-2.750;2024-03-02T08:35:57;7.40;89.00
81202;DHT22;71068;47.662;-2.750;2024-03-02T08:38:23;7.80;88.30
81202;DHT22;71068;47.662;-2.750;2024-03-02T08:40:49;8.10;88.00
81202;DHT22;71068;47.662;-2.750;2024-03-02T08:43:16;8.50;87.80
81202;DHT22;71068;47.662;-2.750;2024-03-02T08:45:42;8.80;87.70
81202;DHT22;71068;47.662;-2.750;2024-03-02T08:48:08;9.10;86.60
81202;DHT22;71068;47.662;-2.750;2024-03-02T08:50:35;9.60;86.00
81202;DHT22;71068;47.662;-2.750;2024-03-02T08:53:03;9.90;84.90
81202;DHT22;71068;47.662;-2.750;2024-03-02T08:55:29;10.30;84.60
81202;DHT22;71068;47.662;-2.750;2024-03-02T08:57:55;10.50;80.40
81202;DHT22;71068;47.662;-2.750;2024-03-02T09:00:25;10.80;81.40
81202;DHT22;71068;47.662;-2.750;2024-03-02T09:02:51;11.40;81.70
81202;DHT22;71068;47.662;-2.750;2024-03-02T09:05:18;11.70;81.20
81202;DHT22;71068;47.662;-2.750;2024-03-02T09:07:46;12.00;80.80
81202;DHT22;71068;47.662;-2.750;2024-03-02T09:10:12;12.20;80.80
81202;DHT22;71068;47.662;-2.750;2024-03-02T09:12:38;12.10;77.40
81202;DHT22;71068;47.662;-2.750;2024-03-02T09:15:05;12.40;79.50
81202;DHT22;71068;47.662;-2.750;2024-03-02T09:17:32;12.50;78.70
81202;DHT22;71068;47.662;-2.750;2024-03-02T09:19:58;12.60;78.10
81202;DHT22;71068;47.662;-2.750;2024-03-02T09:22:24;12.60;78.10
81202;DHT22;71068;47.662;-2.750;2024-03-02T09:24:53;12.60;77.80
81202;DHT22;71068;47.662;-2.750;2024-03-02T09:27:22;12.60;77.60
81202;DHT22;71068;47.662;-2.750;2024-03-02T09:29:49;12.70;78.20
81202;DHT22;71068;47.662;-2.750;2024-03-02T09:32:15;12.80;75.60
81202;DHT22;71068;47.662;-2.750;2024-03-02T09:34:41;12.80;69.80
81202;DHT22;71068;47.662;-2.750;2024-03-02T09:37:07;12.70;74.00
81202;DHT22;71068;47.662;-2.750;2024-03-02T09:39:33;12.70;72.00
81202;DHT22;71068;47.662;-2.750;2024-03-02T09:42:00;12.20;69.30
81202;DHT22;71068;47.662;-2.750;2024-03-02T09:44:26;12.20;73.00
81202;DHT22;71068;47.662;-2.750;2024-03-02T09:46:52;11.80;73.00
81202;DHT22;71068;47.662;-2.750;2024-03-02T09:49:18;11.60;71.60
81202;DHT22;71068;47.662;-2.750;2024-03-02T09:51:47;11.30;72.80
81202;DHT22;71068;47.662;-2.750;2024-03-02T09:54:18;11.40;74.10
81202;DHT22;71068;47.662;-2.750;2024-03-02T09:56:45;11.20;74.90
81202;DHT22;71068;47.662;-2.750;2024-03-02T09:59:11;11.50;75.30
81202;DHT22;71068;47.662;-2.750;2024-03-02T10:01:40;11.60;75.10
81202;DHT22;71068;47.662;-2.750;2024-03-02T10:04:06;11.70;73.70
81202;DHT22;71068;47.662;-2.750;2024-03-02T10:06:34;11.80;74.30
81202;DHT22;71068;47.662;-2.750;2024-03-02T10:09:03;12.00;74.40
81202;DHT22;71068;47.662;-2.750;2024-03-02T10:11:34;12.40;73.20
81202;DHT22;71068;47.662;-2.750;2024-03-02T10:14:10;12.50;71.30
81202;DHT22;71068;47.662;-2.750;2024-03-02T10:16:42;12.90;72.50
81202;DHT22;71068;47.662;-2.750;2024-03-02T10:19:23;13.10;72.80
81202;DHT22;71068;47.662;-2.750;2024-03-02T10:21:54;13.40;72.60
81202;DHT22;71068;47.662;-2.750;2024-03-02T10:24:23;13.60;69.00
81202;DHT22;71068;47.662;-2.750;2024-03-02T10:26:52;13.70;70.40
81202;DHT22;71068;47.662;-2.750;2024-03-02T10:29:22;14.00;69.60
81202;DHT22;71068;47.662;-2.750;2024-03-02T10:31:48;13.90;65.80
81202;DHT22;71068;47.662;-2.750;2024-03-02T10:34:21;14.20;66.80
81202;DHT22;71068;47.662;-2.750;2024-03-02T10:36:47;14.30;67.10
81202;DHT22;71068;47.662;-2.750;2024-03-02T10:39:15;14.30;66.40
81202;DHT22;71068;47.662;-2.750;2024-03-02T10:41:53;14.50;68.00
81202;DHT22;71068;47.662;-2.750;2024-03-02T10:44:22;14.70;66.40
81202;DHT22;71068;47.662;-2.750;2024-03-02T10:47:04;14.40;64.50
81202;DHT22;71068;47.662;-2.750;2024-03-02T10:49:31;14.50;67.00
81202;DHT22;71068;47.662;-2.750;2024-03-02T10:52:01;14.50;63.90
81202;DHT22;71068;47.662;-2.750;2024-03-02T10:54:27;14.60;64.20
81202;DHT22;71068;47.662;-2.750;2024-03-02T10:57:01;14.90;65.40
81202;DHT22;71068;47.662;-2.750;2024-03-02T10:59:37;14.90;63.50
81202;DHT22;71068;47.662;-2.750;2024-03-02T11:02:11;15.10;60.90
81202;DHT22;71068;47.662;-2.750;2024-03-02T11:04:39;15.30;65.90
81202;DHT22;71068;47.662;-2.750;2024-03-02T11:07:10;15.60;63.10
81202;DHT22;71068;47.662;-2.750;2024-03-02T11:09:54;15.70;63.10
81202;DHT22;71068;47.662;-2.750;2024-03-02T11:14:58;15.50;60.40
81202;DHT22;71068;47.662;-2.750;2024-03-02T11:17:27;15.40;59.10
81202;DHT22;71068;47.662;-2.750;2024-03-02T11:19:54;15.20;60.40
81202;DHT22;71068;47.662;-2.750;2024-03-02T11:22:20;14.90;61.00
81202;DHT22;71068;47.662;-2.750;2024-03-02T11:24:51;14.60;60.00
81202;DHT22;71068;47.662;-2.750;2024-03-02T11:28:18;14.90;63.70
81202;DHT22;71068;47.662;-2.750;2024-03-02T11:32:58;14.70;57.50
81202;DHT22;71068;47.662;-2.750;2024-03-02T11:35:36;14.20;60.00
81202;DHT22;71068;47.662;-2.750;2024-03-02T11:38:14;14.00;59.20
81202;DHT22;71068;47.662;-2.750;2024-03-02T11:40:41;13.90;61.20
81202;DHT22;71068;47.662;-2.750;2024-03-02T11:43:09;13.80;61.90
81202;DHT22;71068;47.662;-2.750;2024-03-02T11:45:36;13.70;61.10
81202;DHT22;71068;47.662;-2.750;2024-03-02T11:48:11;13.90;62.70
81202;DHT22;71068;47.662;-2.750;2024-03-02T11:50:47;14.00;64.30
81202;DHT22;71068;47.662;-2.750;2024-03-02T11:53:19;14.20;62.30
81202;DHT22;71068;47.662;-2.750;2024-03-02T11:55:46;14.50;62.20
81202;DHT22;71068;47.662;-2.750;2024-03-02T11:58:13;14.50;61.50
81202;DHT22;71068;47.662;-2.750;2024-03-02T12:00:40;14.50;61.20
81202;DHT22;71068;47.662;-2.750;2024-03-02T12:03:08;14.70;62.80
81202;DHT22;71068;47.662;-2.750;2024-03-02T12:05:36;14.80;61.40
81202;DHT22;71068;47.662;-2.750;2024-03-02T12:08:04;14.80;62.10
81202;DHT22;71068;47.662;-2.750;2024-03-02T12:10:34;14.90;61.90
81202;DHT22;71068;47.662;-2.750;2024-03-02T12:13:03;14.80;57.70
81202;DHT22;71068;47.662;-2.750;2024-03-02T12:15:30;15.00;58.80
81202;DHT22;71068;47.662;-2.750;2024-03-02T12:17:58;14.40;58.40
81202;DHT22;71068;47.662;-2.750;2024-03-02T12:20:29;14.30;61.40
81202;DHT22;71068;47.662;-2.750;2024-03-02T12:23:18;14.10;57.00
81202;DHT22;71068;47.662;-2.750;2024-03-02T12:25:48;13.60;59.60
81202;DHT22;71068;47.662;-2.750;2024-03-02T12:28:14;13.80;61.30
81202;DHT22;71068;47.662;-2.750;2024-03-02T12:30:44;13.50;59.10
81202;DHT22;71068;47.662;-2.750;2024-03-02T12:33:11;13.70;61.60
81202;DHT22;71068;47.662;-2.750;2024-03-02T12:35:40;14.10;60.40
81202;DHT22;71068;47.662;-2.750;2024-03-02T12:38:09;14.40;58.10
81202;DHT22;71068;47.662;-2.750;2024-03-02T12:40:36;14.90;58.70
81202;DHT22;71068;47.662;-2.750;2024-03-02T12:43:05;15.20;55.20
81202;DHT22;71068;47.662;-2.750;2024-03-02T12:45:35;15.60;55.30
81202;DHT22;71068;47.662;-2.750;2024-03-02T12:48:03;16.00;56.70
81202;DHT22;71068;47.662;-2.750;2024-03-02T12:50:30;16.40;56.80
81202;DHT22;71068;47.662;-2.750;2024-03-02T12:52:56;16.80;56.70
81202;DHT22;71068;47.662;-2.750;2024-03-02T12:55:23;17.20;53.10
81202;DHT22;71068;47.662;-2.750;2024-03-02T12:57:53;17.30;50.10
81202;DHT22;71068;47.662;-2.750;2024-03-02T13:00:22;17.70;52.50
81202;DHT22;71068;47.662;-2.750;2024-03-02T13:02:50;17.60;49.90
81202;DHT22;71068;47.662;-2.750;2024-03-02T13:05:16;17.40;48.60
81202;DHT22;71068;47.662;-2.750;2024-03-02T13:07:46;17.30;50.40
81202;DHT22;71068;47.662;-2.750;2024-03-02T13:10:13;17.00;51.70
81202;DHT22;71068;47.662;-2.750;2024-03-02T13:12:40;17.00;52.20
81202;DHT22;71068;47.662;-2.750;2024-03-02T13:15:08;17.30;54.20
81202;DHT22;71068;47.662;-2.750;2024-03-02T13:17:35;17.80;49.20
81202;DHT22;71068;47.662;-2.750;2024-03-02T13:20:05;18.00;46.80
81202;DHT22;71068;47.662;-2.750;2024-03-02T13:22:36;17.70;45.30
81202;DHT22;71068;47.662;-2.750;2024-03-02T13:25:02;16.50;47.60
81202;DHT22;71068;47.662;-2.750;2024-03-02T13:27:31;16.30;51.10
81202;DHT22;71068;47.662;-2.750;2024-03-02T13:29:58;15.90;49.90
81202;DHT22;71068;47.662;-2.750;2024-03-02T13:32:24;15.80;52.00
81202;DHT22;71068;47.662;-2.750;2024-03-02T13:34:56;16.00;53.30
81202;DHT22;71068;47.662;-2.750;2024-03-02T13:37:23;15.90;45.60
81202;DHT22;71068;47.662;-2.750;2024-03-02T13:39:49;15.80;47.20
81202;DHT22;71068;47.662;-2.750;2024-03-02T13:42:18;15.80;46.80
81202;DHT22;71068;47.662;-2.750;2024-03-02T13:44:46;15.40;47.90
81202;DHT22;71068;47.662;-2.750;2024-03-02T13:47:15;15.40;50.10
81202;DHT22;71068;47.662;-2.750;2024-03-02T13:49:41;15.40;50.10
81202;DHT22;71068;47.662;-2.750;2024-03-02T13:52:13;15.80;50.20
81202;DHT22;71068;47.662;-2.750;2024-03-02T13:54:40;16.30;48.90
81202;DHT22;71068;47.662;-2.750;2024-03-02T13:57:07;16.50;46.00
81202;DHT22;71068;47.662;-2.750;2024-03-02T13:59:39;16.90;47.20
81202;DHT22;71068;47.662;-2.750;2024-03-02T14:02:06;17.00;45.60
81202;DHT22;71068;47.662;-2.750;2024-03-02T14:04:33;16.60;43.10
81202;DHT22;71068;47.662;-2.750;2024-03-02T14:07:00;16.10;46.90
81202;DHT22;71068;47.662;-2.750;2024-03-02T14:09:27;16.10;47.30
81202;DHT22;71068;47.662;-2.750;2024-03-02T14:11:54;16.40;44.70
81202;DHT22;71068;47.662;-2.750;2024-03-02T14:14:21;16.60;46.50
81202;DHT22;71068;47.662;-2.750;2024-03-02T14:16:47;16.80;44.40
81202;DHT22;71068;47.662;-2.750;2024-03-02T14:19:13;17.30;46.40
81202;DHT22;71068;47.662;-2.750;2024-03-02T14:21:39;17.80;44.90
81202;DHT22;71068;47.662;-2.750;2024-03-02T14:24:05;17.30;38.90
81202;DHT22;71068;47.662;-2.750;2024-03-02T14:26:35;17.00;39.60
81202;DHT22;71068;47.662;-2.750;2024-03-02T14:29:05;17.00;42.90
81202;DHT22;71068;47.662;-2.750;2024-03-02T14:31:32;17.00;39.50
81202;DHT22;71068;47.662;-2.750;2024-03-02T14:33:58;17.00;43.00
81202;DHT22;71068;47.662;-2.750;2024-03-02T14:36:26;17.20;40.50
81202;DHT22;71068;47.662;-2.750;2024-03-02T14:38:53;17.30;42.10
81202;DHT22;71068;47.662;-2.750;2024-03-02T14:41:21;17.30;42.00
81202;DHT22;71068;47.662;-2.750;2024-03-02T14:43:50;17.80;43.30
81202;DHT22;71068;47.662;-2.750;2024-03-02T14:46:18;18.00;39.20
81202;DHT22;71068;47.662;-2.750;2024-03-02T14:48:46;18.20;37.30
81202;DHT22;71068;47.662;-2.750;2024-03-02T14:51:13;18.50;40.10
81202;DHT22;71068;47.662;-2.750;2024-03-02T14:53:40;18.60;40.40
81202;DHT22;71068;47.662;-2.750;2024-03-02T14:56:08;18.50;38.40
81202;DHT22;71068;47.662;-2.750;2024-03-02T14:58:34;16.90;38.20
81202;DHT22;71068;47.662;-2.750;2024-03-02T15:01:02;17.00;39.90
81202;DHT22;71068;47.662;-2.750;2024-03-02T15:03:29;16.60;39.80
81202;DHT22;71068;47.662;-2.750;2024-03-02T15:05:56;16.30;42.70
81202;DHT22;71068;47.662;-2.750;2024-03-02T15:08:22;16.70;43.90
81202;DHT22;71068;47.662;-2.750;2024-03-02T15:10:48;16.30;38.90
81202;DHT22;71068;47.662;-2.750;2024-03-02T15:13:15;16.20;37.40
81202;DHT22;71068;47.662;-2.750;2024-03-02T15:15:51;16.50;37.00
81202;DHT22;71068;47.662;-2.750;2024-03-02T15:18:18;16.30;37.30
81202;DHT22;71068;47.662;-2.750;2024-03-02T15:20:44;16.50;39.60
81202;DHT22;71068;47.662;-2.750;2024-03-02T15:23:12;16.60;39.60
81202;DHT22;71068;47.662;-2.750;2024-03-02T15:25:38;16.60;38.50
81202;DHT22;71068;47.662;-2.750;2024-03-02T15:28:06;17.20;40.80
81202;DHT22;71068;47.662;-2.750;2024-03-02T15:30:35;17.80;40.50
81202;DHT22;71068;47.662;-2.750;2024-03-02T15:33:04;17.90;36.50
81202;DHT22;71068;47.662;-2.750;2024-03-02T15:35:30;17.30;37.20
81202;DHT22;71068;47.662;-2.750;2024-03-02T15:37:59;16.80;38.50
81202;DHT22;71068;47.662;-2.750;2024-03-02T15:40:25;16.70;38.90
81202;DHT22;71068;47.662;-2.750;2024-03-02T15:42:51;16.30;38.10
81202;DHT22;71068;47.662;-2.750;2024-03-02T15:45:17;16.00;39.90
81202;DHT22;71068;47.662;-2.750;2024-03-02T15:47:43;16.10;40.90
81202;DHT22;71068;47.662;-2.750;2024-03-02T15:50:10;16.30;39.50
81202;DHT22;71068;47.662;-2.750;2024-03-02T15:52:36;16.20;42.10
81202;DHT22;71068;47.662;-2.750;2024-03-02T15:55:02;16.50;42.50
81202;DHT22;71068;47.662;-2.750;2024-03-02T15:57:31;16.60;40.50
81202;DHT22;71068;47.662;-2.750;2024-03-02T15:59:57;16.70;41.80
81202;DHT22;71068;47.662;-2.750;2024-03-02T16:02:23;16.30;41.60
81202;DHT22;71068;47.662;-2.750;2024-03-02T16:04:53;16.30;40.30
81202;DHT22;71068;47.662;-2.750;2024-03-02T16:07:19;16.00;41.60
81202;DHT22;71068;47.662;-2.750;2024-03-02T16:09:45;15.80;41.30
81202;DHT22;71068;47.662;-2.750;2024-03-02T16:12:12;15.50;42.80
81202;DHT22;71068;47.662;-2.750;2024-03-02T16:14:41;15.20;42.80
81202;DHT22;71068;47.662;-2.750;2024-03-02T16:17:07;15.10;44.40
81202;DHT22;71068;47.662;-2.750;2024-03-02T16:19:33;14.40;43.80
81202;DHT22;71068;47.662;-2.750;2024-03-02T16:21:59;14.30;45.10
81202;DHT22;71068;47.662;-2.750;2024-03-02T16:24:32;14.20;45.30
81202;DHT22;71068;47.662;-2.750;2024-03-02T16:26:58;13.90;45.50
81202;DHT22;71068;47.662;-2.750;2024-03-02T16:29:24;13.90;46.40
81202;DHT22;71068;47.662;-2.750;2024-03-02T16:31:50;13.80;46.80
81202;DHT22;71068;47.662;-2.750;2024-03-02T16:34:16;13.50;48.00
81202;DHT22;71068;47.662;-2.750;2024-03-02T16:36:42;13.40;49.20
81202;DHT22;71068;47.662;-2.750;2024-03-02T16:39:14;13.40;49.30
81202;DHT22;71068;47.662;-2.750;2024-03-02T16:41:40;13.10;51.30
81202;DHT22;71068;47.662;-2.750;2024-03-02T16:44:09;13.10;52.60
81202;DHT22;71068;47.662;-2.750;2024-03-02T16:46:40;12.90;54.00
81202;DHT22;71068;47.662;-2.750;2024-03-02T16:49:09;13.10;54.10
81202;DHT22;71068;47.662;-2.750;2024-03-02T16:51:42;13.10;54.10
81202;DHT22;71068;47.662;-2.750;2024-03-02T16:54:08;12.70;56.40
81202;DHT22;71068;47.662;-2.750;2024-03-02T16:56:41;12.20;56.50
81202;DHT22;71068;47.662;-2.750;2024-03-02T16:59:09;11.80;58.20
81202;DHT22;71068;47.662;-2.750;2024-03-02T17:01:39;11.50;58.60
81202;DHT22;71068;47.662;-2.750;2024-03-02T17:04:05;11.10;60.50
81202;DHT22;71068;47.662;-2.750;2024-03-02T17:06:31;11.20;60.90
81202;DHT22;71068;47.662;-2.750;2024-03-02T17:08:57;11.10;60.60
81202;DHT22;71068;47.662;-2.750;2024-03-02T17:11:24;11.00;61.50
81202;DHT22;71068;47.662;-2.750;2024-03-02T17:13:50;10.90;61.40
81202;DHT22;71068;47.662;-2.750;2024-03-02T17:16:26;10.70;61.50
81202;DHT22;71068;47.662;-2.750;2024-03-02T17:18:52;10.80;62.30
81202;DHT22;71068;47.662;-2.750;2024-03-02T17:21:18;10.70;62.50
81202;DHT22;71068;47.662;-2.750;2024-03-02T17:23:45;10.60;62.70
81202;DHT22;71068;47.662;-2.750;2024-03-02T17:26:11;10.70;65.00
81202;DHT22;71068;47.662;-2.750;2024-03-02T17:28:40;10.60;63.60
81202;DHT22;71068;47.662;-2.750;2024-03-02T17:31:09;10.70;63.60
81202;DHT22;71068;47.662;-2.750;2024-03-02T17:33:37;10.90;63.00
81202;DHT22;71068;47.662;-2.750;2024-03-02T17:36:04;11.00;63.00
81202;DHT22;71068;47.662;-2.750;2024-03-02T17:38:30;11.10;62.90
81202;DHT22;71068;47.662;-2.750;2024-03-02T17:40:56;11.10;62.20
81202;DHT22;71068;47.662;-2.750;2024-03-02T17:43:22;11.20;62.40
81202;DHT22;71068;47.662;-2.750;2024-03-02T17:45:48;10.60;63.60
81202;DHT22;71068;47.662;-2.750;2024-03-02T17:48:14;10.60;63.70
81202;DHT22;71068;47.662;-2.750;2024-03-02T17:50:45;10.50;63.50
81202;DHT22;71068;47.662;-2.750;2024-03-02T17:53:11;10.70;63.60
81202;DHT22;71068;47.662;-2.750;2024-03-02T17:55:37;10.70;62.90
81202;DHT22;71068;47.662;-2.750;2024-03-02T17:58:14;10.70;62.70
81202;DHT22;71068;47.662;-2.750;2024-03-02T18:00:47;10.80;62.80
81202;DHT22;71068;47.662;-2.750;2024-03-02T18:06:29;10.50;63.20
81202;DHT22;71068;47.662;-2.750;2024-03-02T18:08:56;10.50;62.90
81202;DHT22;71068;47.662;-2.750;2024-03-02T18:11:22;10.40;63.50
81202;DHT22;71068;47.662;-2.750;2024-03-02T18:13:56;10.40;63.50
81202;DHT22;71068;47.662;-2.750;2024-03-02T18:16:22;10.40;63.80
81202;DHT22;71068;47.662;-2.750;2024-03-02T18:18:48;10.50;64.20
81202;DHT22;71068;47.662;-2.750;2024-03-02T18:21:14;10.30;64.50
81202;DHT22;71068;47.662;-2.750;2024-03-02T18:23:40;10.20;64.20
81202;DHT22;71068;47.662;-2.750;2024-03-02T18:26:07;10.10;65.50
81202;DHT22;71068;47.662;-2.750;2024-03-02T18:28:33;10.20;64.80
81202;DHT22;71068;47.662;-2.750;2024-03-02T18:31:00;10.10;65.40
81202;DHT22;71068;47.662;-2.750;2024-03-02T18:33:29;10.10;65.40
81202;DHT22;71068;47.662;-2.750;2024-03-02T18:35:55;9.90;65.50
81202;DHT22;71068;47.662;-2.750;2024-03-02T18:38:21;10.00;65.80
81202;DHT22;71068;47.662;-2.750;2024-03-02T18:40:51;9.90;65.40
81202;DHT22;71068;47.662;-2.750;2024-03-02T18:43:17;10.00;66.20
81202;DHT22;71068;47.662;-2.750;2024-03-02T18:45:45;9.90;66.20
81202;DHT22;71068;47.662;-2.750;2024-03-02T18:48:12;10.00;65.40
81202;DHT22;71068;47.662;-2.750;2024-03-02T18:50:38;10.10;65.00
81202;DHT22;71068;47.662;-2.750;2024-03-02T18:53:04;10.20;64.50
81202;DHT22;71068;47.662;-2.750;2024-03-02T18:55:31;10.30;64.70
81202;DHT22;71068;47.662;-2.750;2024-03-02T18:57:57;10.20;65.00
81202;DHT22;71068;47.662;-2.750;2024-03-02T19:00:23;10.30;63.60
81202;DHT22;71068;47.662;-2.750;2024-03-02T19:02:52;10.30;63.20
81202;DHT22;71068;47.662;-2.750;2024-03-02T19:05:18;10.20;63.90
81202;DHT22;71068;47.662;-2.750;2024-03-02T19:07:44;10.20;64.90
81202;DHT22;71068;47.662;-2.750;2024-03-02T19:10:10;10.20;65.20
81202;DHT22;71068;47.662;-2.750;2024-03-02T19:12:37;10.10;64.80
81202;DHT22;71068;47.662;-2.750;2024-03-02T19:15:03;10.10;65.00
81202;DHT22;71068;47.662;-2.750;2024-03-02T19:17:30;10.10;65.40
81202;DHT22;71068;47.662;-2.750;2024-03-02T19:19:56;10.10;65.00
81202;DHT22;71068;47.662;-2.750;2024-03-02T19:22:22;9.90;65.50
81202;DHT22;71068;47.662;-2.750;2024-03-02T19:24:49;9.90;66.20
81202;DHT22;71068;47.662;-2.750;2024-03-02T19:27:15;9.90;66.20
81202;DHT22;71068;47.662;-2.750;2024-03-02T19:29:41;9.90;66.70
81202;DHT22;71068;47.662;-2.750;2024-03-02T19:32:07;9.80;67.00
81202;DHT22;71068;47.662;-2.750;2024-03-02T19:34:36;9.80;67.30
81202;DHT22;71068;47.662;-2.750;2024-03-02T19:37:02;9.70;67.80
81202;DHT22;71068;47.662;-2.750;2024-03-02T19:39:31;9.60;66.70
81202;DHT22;71068;47.662;-2.750;2024-03-02T19:41:58;9.60;68.00
81202;DHT22;71068;47.662;-2.750;2024-03-02T19:44:26;9.50;69.00
81202;DHT22;71068;47.662;-2.750;2024-03-02T19:46:59;9.50;69.00
81202;DHT22;71068;47.662;-2.750;2024-03-02T19:49:29;9.40;69.00
81202;DHT22;71068;47.662;-2.750;2024-03-02T19:51:56;9.50;67.70
81202;DHT22;71068;47.662;-2.750;2024-03-02T19:54:22;9.50;69.00
81202;DHT22;71068;47.662;-2.750;2024-03-02T19:56:48;9.50;68.70
81202;DHT22;71068;47.662;-2.750;2024-03-02T19:59:21;9.40;68.80
81202;DHT22;71068;47.662;-2.750;2024-03-02T20:01:47;9.50;68.50
81202;DHT22;71068;47.662;-2.750;2024-03-02T20:04:14;9.40;68.40
81202;DHT22;71068;47.662;-2.750;2024-03-02T20:06:49;9.30;69.70
81202;DHT22;71068;47.662;-2.750;2024-03-02T20:09:16;9.30;69.50
81202;DHT22;71068;47.662;-2.750;2024-03-02T20:11:42;9.30;68.70
81202;DHT22;71068;47.662;-2.750;2024-03-02T20:14:11;9.30;68.40
81202;DHT22;71068;47.662;-2.750;2024-03-02T20:16:41;9.30;68.60
81202;DHT22;71068;47.662;-2.750;2024-03-02T20:19:16;9.30;68.10
81202;DHT22;71068;47.662;-2.750;2024-03-02T20:21:43;9.10;69.20
81202;DHT22;71068;47.662;-2.750;2024-03-02T20:24:09;9.10;68.80
81202;DHT22;71068;47.662;-2.750;2024-03-02T20:26:37;9.10;69.20
81202;DHT22;71068;47.662;-2.750;2024-03-02T20:29:03;9.00;68.80
81202;DHT22;71068;47.662;-2.750;2024-03-02T20:31:29;8.90;67.70
81202;DHT22;71068;47.662;-2.750;2024-03-02T20:33:55;8.90;67.90
81202;DHT22;71068;47.662;-2.750;2024-03-02T20:36:22;8.90;69.90
81202;DHT22;71068;47.662;-2.750;2024-03-02T20:38:48;8.80;70.70
81202;DHT22;71068;47.662;-2.750;2024-03-02T20:41:20;8.80;70.70
81202;DHT22;71068;47.662;-2.750;2024-03-02T20:43:47;8.60;72.20
81202;DHT22;71068;47.662;-2.750;2024-03-02T20:46:13;8.60;71.00
81202;DHT22;71068;47.662;-2.750;2024-03-02T20:48:40;8.60;71.80
81202;DHT22;71068;47.662;-2.750;2024-03-02T20:51:06;8.50;72.60
81202;DHT22;71068;47.662;-2.750;2024-03-02T20:53:35;8.40;73.40
81202;DHT22;71068;47.662;-2.750;2024-03-02T20:56:01;8.40;73.60
81202;DHT22;71068;47.662;-2.750;2024-03-02T20:58:27;8.40;73.90
81202;DHT22;71068;47.662;-2.750;2024-03-02T21:00:53;8.30;74.30
81202;DHT22;71068;47.662;-2.750;2024-03-02T21:03:20;8.30;73.60
81202;DHT22;71068;47.662;-2.750;2024-03-02T21:05:50;8.50;73.70
81202;DHT22;71068;47.662;-2.750;2024-03-02T21:08:25;8.50;73.40
81202;DHT22;71068;47.662;-2.750;2024-03-02T21:10:51;8.50;72.70
81202;DHT22;71068;47.662;-2.750;2024-03-02T21:13:19;8.50;72.10
81202;DHT22;71068;47.662;-2.750;2024-03-02T21:15:47;8.40;71.70
81202;DHT22;71068;47.662;-2.750;2024-03-02T21:18:18;8.60;71.10
81202;DHT22;71068;47.662;-2.750;2024-03-02T21:20:45;8.50;71.00
81202;DHT22;71068;47.662;-2.750;2024-03-02T21:23:11;8.60;70.90
81202;DHT22;71068;47.662;-2.750;2024-03-02T21:25:41;8.50;71.10
81202;DHT22;71068;47.662;-2.750;2024-03-02T21:28:12;8.40;70.60
81202;DHT22;71068;47.662;-2.750;2024-03-02T21:30:38;8.40;70.40
81202;DHT22;71068;47.662;-2.750;2024-03-02T21:33:07;8.40;70.40
81202;DHT22;71068;47.662;-2.750;2024-03-02T21:35:35;8.30;71.20
81202;DHT22;71068;47.662;-2.750;2024-03-02T21:38:02;8.30;72.10
81202;DHT22;71068;47.662;-2.750;2024-03-02T21:40:37;8.20;73.00
81202;DHT22;71068;47.662;-2.750;2024-03-02T21:43:06;8.10;72.80
81202;DHT22;71068;47.662;-2.750;2024-03-02T21:45:33;8.20;73.00
81202;DHT22;71068;47.662;-2.750;2024-03-02T21:47:59;8.10;72.80
81202;DHT22;71068;47.662;-2.750;2024-03-02T21:50:25;8.20;72.50
81202;DHT22;71068;47.662;-2.750;2024-03-02T21:52:59;8.00;73.00
81202;DHT22;71068;47.662;-2.750;2024-03-02T21:55:34;8.00;72.70
81202;DHT22;71068;47.662;-2.750;2024-03-02T21:58:04;8.00;72.70
81202;DHT22;71068;47.662;-2.750;2024-03-02T22:00:30;8.00;72.20
81202;DHT22;71068;47.662;-2.750;2024-03-02T22:02:59;7.90;72.60
81202;DHT22;71068;47.662;-2.750;2024-03-02T22:05:25;7.90;72.50
81202;DHT22;71068;47.662;-2.750;2024-03-02T22:07:54;7.90;73.10
81202;DHT22;71068;47.662;-2.750;2024-03-02T22:10:22;7.80;73.90
81202;DHT22;71068;47.662;-2.750;2024-03-02T22:12:51;7.70;73.90
81202;DHT22;71068;47.662;-2.750;2024-03-02T22:15:17;7.70;74.50
81202;DHT22;71068;47.662;-2.750;2024-03-02T22:17:46;7.60;74.40
81202;DHT22;71068;47.662;-2.750;2024-03-02T22:20:12;7.60;74.80
81202;DHT22;71068;47.662;-2.750;2024-03-02T22:22:39;7.50;74.60
81202;DHT22;71068;47.662;-2.750;2024-03-02T22:25:06;7.70;74.10
81202;DHT22;71068;47.662;-2.750;2024-03-02T22:27:32;7.70;73.80
81202;DHT22;71068;47.662;-2.750;2024-03-02T22:30:00;7.70;74.00
81202;DHT22;71068;47.662;-2.750;2024-03-02T22:32:26;7.70;74.00
81202;DHT22;71068;47.662;-2.750;2024-03-02T22:34:55;7.70;74.00
81202;DHT22;71068;47.662;-2.750;2024-03-02T22:37:21;7.70;73.60
81202;DHT22;71068;47.662;-2.750;2024-03-02T22:39:47;7.70;73.40
81202;DHT22;71068;47.662;-2.750;2024-03-02T22:42:14;7.60;73.20
81202;DHT22;71068;47.662;-2.750;2024-03-02T22:44:43;7.70;73.00
81202;DHT22;71068;47.662;-2.750;2024-03-02T22:47:09;7.60;73.20
81202;DHT22;71068;47.662;-2.750;2024-03-02T22:49:39;7.60;72.90
81202;DHT22;71068;47.662;-2.750;2024-03-02T22:52:05;7.80;72.50
81202;DHT22;71068;47.662;-2.750;2024-03-02T22:54:31;7.70;72.80
81202;DHT22;71068;47.662;-2.750;2024-03-02T22:56:57;7.70;72.70
81202;DHT22;71068;47.662;-2.750;2024-03-02T22:59:23;7.80;72.80
81202;DHT22;71068;47.662;-2.750;2024-03-02T23:01:49;7.70;73.00
81202;DHT22;71068;47.662;-2.750;2024-03-02T23:04:15;7.60;72.70
81202;DHT22;71068;47.662;-2.750;2024-03-02T23:06:44;7.60;72.90
81202;DHT22;71068;47.662;-2.750;2024-03-02T23:09:10;7.50;73.10
81202;DHT22;71068;47.662;-2.750;2024-03-02T23:11:37;7.60;73.30
81202;DHT22;71068;47.662;-2.750;2024-03-02T23:14:07;7.60;73.00
81202;DHT22;71068;47.662;-2.750;2024-03-02T23:16:33;7.50;72.70
81202;DHT22;71068;47.662;-2.750;2024-03-02T23:19:02;7.60;72.40
81202;DHT22;71068;47.662;-2.750;2024-03-02T23:21:28;7.50;72.10
81202;DHT22;71068;47.662;-2.750;2024-03-02T23:23:54;7.60;72.60
81202;DHT22;71068;47.662;-2.750;2024-03-02T23:26:20;7.60;72.40
81202;DHT22;71068;47.662;-2.750;2024-03-02T23:28:47;7.50;72.50
81202;DHT22;71068;47.662;-2.750;2024-03-02T23:31:14;7.60;72.50
81202;DHT22;71068;47.662;-2.750;2024-03-02T23:33:41;7.60;72.20
81202;DHT22;71068;47.662;-2.750;2024-03-02T23:36:07;7.60;72.10
81202;DHT22;71068;47.662;-2.750;2024-03-02T23:38:33;7.60;72.00
81202;DHT22;71068;47.662;-2.750;2024-03-02T23:41:00;7.60;72.10
81202;DHT22;71068;47.662;-2.750;2024-03-02T23:43:36;7.50;72.70
81202;DHT22;71068;47.662;-2.750;2024-03-02T23:46:04;7.50;72.90
81202;DHT22;71068;47.662;-2.750;2024-03-02T23:48:31;7.30;73.70
81202;DHT22;71068;47.662;-2.750;2024-03-02T23:50:57;7.40;73.90
81202;DHT22;71068;47.662;-2.750;2024-03-02T23:53:23;7.30;73.70
81202;DHT22;71068;47.662;-2.750;2024-03-02T23:55:49;7.40;73.30
81202;DHT22;71068;47.662;-2.750;2024-03-02T23:58:16;7.30;74.00
